createdAt,value
2018-06-17T00:01:35.149Z,3.13
2018-06-17T00:04:09.107Z,4.83
2018-06-17T00:06:43.194Z,2.47
2018-06-17T00:09:17.256Z,6.20
2018-06-17T00:11:51.432Z,2.50
2018-06-17T00:14:25.189Z,2.85
2018-06-17T00:16:59.197Z,3.30
2018-06-17T00:19:33.547Z,2.20
2018-06-17T00:22:07.514Z,3.37
2018-06-17T00:24:41.501Z,5.30
2018-06-17T00:27:15.918Z,2.00
2018-06-17T00:29:50.111Z,1.40
2018-06-17T00:32:24.388Z,1.60
2018-06-17T00:34:58.348Z,2.30
2018-06-17T00:37:30.877Z,2.35
2018-06-17T00:40:04.741Z,2.98
2018-06-17T00:42:39.515Z,1.87
2018-06-17T00:45:13.500Z,2.03
2018-06-17T00:47:47.442Z,1.50
2018-06-17T00:50:21.457Z,1.10
2018-06-17T00:52:55.215Z,1.20
2018-06-17T00:55:28.349Z,1.20
2018-06-17T00:58:02.378Z,1.13
2018-06-17T01:00:36.214Z,1.20
2018-06-17T01:03:10.296Z,1.20
2018-06-17T01:05:44.412Z,1.07
2018-06-17T01:08:18.283Z,0.90
2018-06-17T01:10:52.834Z,1.00
2018-06-17T01:13:26.770Z,1.07
2018-06-17T01:16:02.181Z,0.97
2018-06-17T01:18:36.136Z,0.90
2018-06-17T01:21:10.306Z,0.90
2018-06-17T01:23:44.317Z,0.80
2018-06-17T01:26:18.313Z,1.00
2018-06-17T01:28:52.659Z,0.65
2018-06-17T01:31:27.135Z,0.90
2018-06-17T01:33:59.370Z,0.60
2018-06-17T01:36:33.483Z,0.80
2018-06-17T01:39:09.104Z,0.80
2018-06-17T01:41:43.836Z,0.60
2018-06-17T01:44:17.769Z,0.70
2018-06-17T01:46:51.443Z,0.60
2018-06-17T01:49:25.694Z,0.83
2018-06-17T01:51:59.783Z,0.90
2018-06-17T01:54:33.704Z,0.70
2018-06-17T01:57:06.722Z,0.70
2018-06-17T01:59:41.399Z,0.70
2018-06-17T02:02:15.412Z,0.57
2018-06-17T02:04:53.396Z,0.70
2018-06-17T02:07:31.219Z,0.70
2018-06-17T02:10:08.806Z,0.70
2018-06-17T02:12:42.946Z,0.60
2018-06-17T02:15:17.243Z,0.57
2018-06-17T02:17:52.091Z,0.50
2018-06-17T02:20:27.457Z,0.60
2018-06-17T02:23:01.467Z,0.40
2018-06-17T02:25:34.037Z,0.53
2018-06-17T02:28:07.613Z,0.40
2018-06-17T02:30:41.351Z,0.50
2018-06-17T02:33:15.109Z,0.70
2018-06-17T02:35:49.239Z,0.80
2018-06-17T02:38:23.488Z,0.70
2018-06-17T02:40:57.801Z,1.10
2018-06-17T02:43:31.768Z,0.90
2018-06-17T02:46:09.744Z,1.15
2018-06-17T02:48:47.620Z,1.20
2018-06-17T02:51:25.610Z,1.13
2018-06-17T02:54:03.198Z,1.10
2018-06-17T02:56:37.109Z,1.20
2018-06-17T02:59:12.112Z,1.43
2018-06-17T03:01:46.115Z,1.10
2018-06-17T03:04:21.512Z,1.47
2018-06-17T03:06:56.228Z,1.47
2018-06-17T03:09:32.890Z,1.50
2018-06-17T03:12:08.976Z,1.50
2018-06-17T03:14:44.124Z,1.70
2018-06-17T03:17:16.740Z,1.90
2018-06-17T03:19:51.419Z,1.70
2018-06-17T03:22:26.848Z,2.10
2018-06-17T03:25:04.387Z,1.32
2018-06-17T03:27:51.056Z,1.65
2018-06-17T03:30:27.523Z,2.10
2018-06-17T03:33:03.995Z,2.10
2018-06-17T03:35:42.554Z,2.27
2018-06-17T03:38:16.605Z,2.23
2018-06-17T03:40:50.788Z,2.13
2018-06-17T03:43:26.078Z,2.17
2018-06-17T03:46:00.704Z,2.20
2018-06-17T03:48:33.187Z,2.20
2018-06-17T03:51:07.398Z,2.27
2018-06-17T03:53:42.774Z,1.70
2018-06-17T03:56:16.491Z,2.47
2018-06-17T03:58:50.738Z,1.60
2018-06-17T04:01:25.694Z,2.40
2018-06-17T04:04:00.419Z,1.87
2018-06-17T04:06:34.186Z,1.57
2018-06-17T04:09:09.723Z,2.10
2018-06-17T04:11:43.578Z,2.30
2018-06-17T04:14:17.333Z,2.20
2018-06-17T04:16:50.984Z,2.17
2018-06-17T04:19:23.072Z,2.07
2018-06-17T04:21:57.606Z,2.05
2018-06-17T04:24:31.840Z,2.23
2018-06-17T04:27:05.914Z,2.40
2018-06-17T04:29:38.695Z,2.60
2018-06-17T04:32:13.967Z,2.90
2018-06-17T04:34:47.962Z,2.90
2018-06-17T04:37:22.176Z,2.20
2018-06-17T04:39:56.677Z,2.23
2018-06-17T04:42:29.072Z,2.40
2018-06-17T04:45:03.408Z,1.92
2018-06-17T04:47:39.059Z,2.30
2018-06-17T04:50:13.816Z,1.93
2018-06-17T04:52:48.580Z,3.37
2018-06-17T04:55:22.855Z,2.40
2018-06-17T04:57:59.068Z,2.07
2018-06-17T05:00:31.540Z,2.45
2018-06-17T05:03:05.554Z,2.20
2018-06-17T05:05:38.850Z,2.15
2018-06-17T05:08:11.732Z,2.12
2018-06-17T05:10:46.601Z,2.07
2018-06-17T05:13:22.038Z,2.98
2018-06-17T05:15:56.389Z,3.33
2018-06-17T05:18:31.009Z,3.03
2018-06-17T05:21:06.238Z,2.20
2018-06-17T05:23:41.544Z,2.65
2018-06-17T05:26:16.392Z,2.60
2018-06-17T05:28:50.597Z,2.47
2018-06-17T05:31:24.762Z,2.20
2018-06-17T05:47:16.167Z,2.15
2018-06-17T05:49:50.957Z,1.50
2018-06-17T05:52:28.767Z,1.60
2018-06-17T05:55:04.656Z,1.40
2018-06-17T05:57:38.223Z,1.70
2018-06-17T06:00:13.206Z,1.67
2018-06-17T06:02:47.883Z,1.73
2018-06-17T06:05:21.712Z,1.30
2018-06-17T06:07:56.724Z,1.35
2018-06-17T06:10:30.684Z,1.75
2018-06-17T06:13:05.300Z,1.43
2018-06-17T06:15:39.610Z,1.25
2018-06-17T06:18:12.115Z,1.40
2018-06-17T06:20:46.208Z,1.57
2018-06-17T06:23:19.808Z,1.80
2018-06-17T06:25:58.298Z,1.85
2018-06-17T06:28:33.708Z,1.35
2018-06-17T06:31:07.731Z,1.70
2018-06-17T06:33:40.412Z,1.87
2018-06-17T06:36:14.344Z,1.40
2018-06-17T06:38:48.222Z,2.00
2018-06-17T06:41:22.059Z,1.70
2018-06-17T06:43:56.445Z,1.82
2018-06-17T06:46:30.254Z,1.72
2018-06-17T06:49:04.924Z,1.55
2018-06-17T06:51:38.939Z,2.00
2018-06-17T06:54:14.225Z,1.90
2018-06-17T06:56:49.689Z,1.82
2018-06-17T06:59:23.904Z,1.60
2018-06-17T07:02:06.475Z,2.12
2018-06-17T07:04:49.300Z,2.05
2018-06-17T07:07:32.132Z,1.50
2018-06-17T07:10:16.218Z,1.77
2018-06-17T07:12:52.017Z,2.10
2018-06-17T07:15:34.218Z,1.60
2018-06-17T07:18:19.017Z,1.83
2018-06-17T07:20:52.877Z,1.72
2018-06-17T07:23:28.411Z,2.03
2018-06-17T07:26:38.439Z,1.47
2018-06-17T07:29:24.670Z,1.83
2018-06-17T07:31:59.583Z,2.00
2018-06-17T07:34:34.396Z,2.30
2018-06-17T07:37:10.182Z,1.92
2018-06-17T07:40:22.086Z,1.95
2018-06-17T07:42:57.002Z,2.10
2018-06-17T07:45:30.815Z,2.43
2018-06-17T07:48:05.177Z,1.97
2018-06-17T07:50:42.625Z,2.10
2018-06-17T07:53:21.755Z,1.73
2018-06-17T07:55:55.773Z,2.40
2018-06-17T07:58:30.903Z,1.95
2018-06-17T08:01:05.986Z,1.72
2018-06-17T08:03:41.344Z,2.00
2018-06-17T08:06:15.154Z,2.30
2018-06-17T08:08:49.621Z,2.30
2018-06-17T08:11:32.804Z,2.50
2018-06-17T08:14:06.779Z,2.00
2018-06-17T08:16:39.028Z,2.47
2018-06-17T08:19:12.893Z,2.40
2018-06-17T08:21:47.892Z,1.92
2018-06-17T08:24:21.660Z,2.40
2018-06-17T08:26:56.479Z,2.17
2018-06-17T08:29:31.916Z,2.50
2018-06-17T08:32:05.469Z,1.92
2018-06-17T08:34:39.831Z,2.80
2018-06-17T08:37:15.243Z,2.50
2018-06-17T08:39:50.249Z,2.20
2018-06-17T08:42:24.178Z,2.70
2018-06-17T08:44:59.115Z,3.00
2018-06-17T08:47:33.149Z,2.90
2018-06-17T08:50:08.149Z,2.62
2018-06-17T08:52:41.837Z,2.20
2018-06-17T08:55:15.902Z,2.62
2018-06-17T08:57:50.407Z,2.70
2018-06-17T09:00:25.276Z,2.42
2018-06-17T09:03:00.155Z,2.77
2018-06-17T09:05:34.798Z,2.37
2018-06-17T09:08:09.332Z,2.60
2018-06-17T09:10:44.198Z,2.30
2018-06-17T09:13:18.230Z,2.40
2018-06-17T09:15:52.371Z,2.37
2018-06-17T09:18:26.734Z,2.40
2018-06-17T09:21:01.382Z,2.65
2018-06-17T09:25:15.772Z,2.10
2018-06-17T09:27:50.862Z,2.70
2018-06-17T09:30:26.688Z,2.53
2018-06-17T09:33:02.833Z,2.17
2018-06-17T09:35:37.712Z,2.20
2018-06-17T09:38:11.917Z,2.15
2018-06-17T09:40:47.747Z,2.55
2018-06-17T09:43:21.851Z,2.60
2018-06-17T09:45:55.791Z,2.80
2018-06-17T09:48:30.912Z,2.33
2018-06-17T09:51:05.725Z,2.37
2018-06-17T09:53:40.929Z,2.83
2018-06-17T09:56:15.987Z,3.62
2018-06-17T09:58:52.277Z,3.00
2018-06-17T10:01:28.044Z,2.57
2018-06-17T10:04:03.108Z,2.80
2018-06-17T10:06:38.257Z,2.70
2018-06-17T10:09:14.808Z,2.60
2018-06-17T10:49:57.514Z,3.83
2018-06-17T10:52:32.243Z,3.22
2018-06-17T10:55:06.196Z,3.75
2018-06-17T10:57:40.590Z,3.33
2018-06-17T11:00:16.080Z,2.67
2018-06-17T11:02:52.799Z,3.57
2018-06-17T11:05:27.942Z,3.20
2018-06-17T11:08:03.987Z,2.80
2018-06-17T11:10:38.772Z,3.40
2018-06-17T11:13:13.295Z,2.87
2018-06-17T11:15:48.641Z,2.53
2018-06-17T11:18:21.961Z,2.50
2018-06-17T11:20:56.111Z,2.67
2018-06-17T11:23:30.733Z,2.40
2018-06-17T11:26:04.671Z,2.77
2018-06-17T11:28:36.966Z,2.73
2018-06-17T11:31:11.364Z,2.58
2018-06-17T11:33:45.420Z,2.90
2018-06-17T11:36:20.053Z,3.07
2018-06-17T11:38:53.895Z,2.80
2018-06-17T11:41:28.795Z,2.60
2018-06-17T11:44:03.059Z,2.40
2018-06-17T11:46:37.025Z,3.37
2018-06-17T11:49:11.919Z,3.60
2018-06-17T11:51:48.014Z,3.10
2018-06-17T11:54:22.067Z,2.40
2018-06-17T11:56:55.519Z,2.52
2018-06-17T11:59:29.865Z,2.40
2018-06-17T12:34:35.271Z,2.60
2018-06-17T12:37:09.844Z,4.07
2018-06-17T12:39:43.956Z,4.30
2018-06-17T12:42:17.962Z,3.30
2018-06-17T12:44:51.493Z,3.50
2018-06-17T12:47:25.471Z,3.87
2018-06-17T12:50:00.817Z,3.65
2018-06-17T12:52:35.037Z,4.05
2018-06-17T12:55:09.974Z,3.40
2018-06-17T12:57:43.892Z,3.67
2018-06-17T13:00:18.803Z,3.27
2018-06-17T13:02:52.717Z,3.70
2018-06-17T13:05:26.519Z,3.30
2018-06-17T13:08:00.461Z,3.40
2018-06-17T13:10:35.518Z,3.73
2018-06-17T13:13:09.616Z,3.60
2018-06-17T13:15:43.718Z,3.10
2018-06-17T13:18:17.854Z,3.63
2018-06-17T13:20:51.645Z,3.57
2018-06-17T13:23:25.428Z,4.50
2018-06-17T13:25:59.734Z,4.63
2018-06-17T13:28:34.081Z,3.80
2018-06-17T13:31:08.272Z,4.33
2018-06-17T13:33:42.341Z,3.93
2018-06-17T13:36:16.605Z,3.70
2018-06-17T13:38:51.745Z,4.30
2018-06-17T13:41:25.961Z,5.47
2018-06-17T13:43:59.669Z,3.80
2018-06-17T13:46:32.909Z,4.03
2018-06-17T13:49:05.372Z,4.30
2018-06-17T13:51:40.641Z,3.70
2018-06-17T13:54:15.878Z,4.23
2018-06-17T13:56:49.828Z,3.60
2018-06-17T13:59:25.256Z,4.17
2018-06-17T14:01:59.191Z,3.08
2018-06-17T14:04:33.482Z,3.37
2018-06-17T14:07:07.177Z,4.00
2018-06-17T14:09:41.355Z,3.57
2018-06-17T14:12:14.981Z,3.33
2018-06-17T14:14:48.877Z,3.17
2018-06-17T14:17:22.560Z,2.30
2018-06-17T14:19:56.426Z,2.90
2018-06-17T14:22:30.313Z,2.87
2018-06-17T14:25:04.280Z,2.27
2018-06-17T14:27:38.600Z,2.17
2018-06-17T14:30:12.565Z,2.50
2018-06-17T14:32:46.647Z,2.00
2018-06-17T14:35:20.777Z,2.83
2018-06-17T14:37:54.885Z,2.07
2018-06-17T14:40:28.010Z,2.07
2018-06-17T14:43:05.999Z,2.37
2018-06-17T14:45:42.757Z,2.33
2018-06-17T14:48:20.641Z,2.05
2018-06-17T14:50:58.383Z,1.98
2018-06-17T14:53:33.823Z,2.50
2018-06-17T14:56:08.659Z,2.47
2018-06-17T14:58:42.518Z,2.10
2018-06-17T15:01:17.470Z,2.60
2018-06-17T15:03:51.803Z,2.17
2018-06-17T15:06:26.052Z,2.47
2018-06-17T15:08:58.761Z,2.57
2018-06-17T15:11:32.967Z,2.40
2018-06-17T15:14:06.742Z,2.53
2018-06-17T15:16:42.894Z,2.30
2018-06-17T15:19:16.582Z,2.13
2018-06-17T15:21:50.600Z,2.30
2018-06-17T15:24:24.474Z,2.55
2018-06-17T15:26:58.943Z,2.30
2018-06-17T15:29:33.162Z,2.00
2018-06-17T15:32:11.096Z,2.80
2018-06-17T15:34:49.698Z,2.43
2018-06-17T15:37:27.380Z,2.23
2018-06-17T15:40:03.406Z,2.97
2018-06-17T15:42:39.854Z,2.60
2018-06-17T15:45:13.855Z,2.30
2018-06-17T15:47:47.634Z,2.30
2018-06-17T15:50:22.280Z,2.63
2018-06-17T15:52:56.115Z,2.27
2018-06-17T15:55:30.634Z,2.02
2018-06-17T15:58:02.796Z,1.95
2018-06-17T16:00:36.683Z,1.80
2018-06-17T16:03:11.504Z,2.33
2018-06-17T16:05:45.252Z,2.00
2018-06-17T16:08:19.260Z,2.03
2018-06-17T16:10:53.100Z,1.90
2018-06-17T16:13:31.258Z,1.60
2018-06-17T16:16:09.057Z,2.20
2018-06-17T16:18:48.190Z,2.00
2018-06-17T16:21:21.992Z,1.80
2018-06-17T16:23:56.206Z,2.10
2018-06-17T16:26:30.387Z,2.30
2018-06-17T16:29:04.399Z,1.93
2018-06-17T16:31:38.269Z,1.90
2018-06-17T16:34:10.988Z,1.92
2018-06-17T16:36:45.055Z,1.60
2018-06-17T16:39:18.747Z,1.77
2018-06-17T16:41:52.686Z,2.00
2018-06-17T16:44:28.378Z,1.70
2018-06-17T16:47:02.168Z,2.77
2018-06-17T16:49:36.124Z,1.73
2018-06-17T16:52:14.438Z,2.05
2018-06-17T16:54:50.754Z,1.80
2018-06-17T16:57:30.622Z,1.42
2018-06-17T17:00:14.930Z,1.80
2018-06-17T17:02:49.331Z,1.50
2018-06-17T17:05:23.974Z,1.87
2018-06-17T17:07:57.970Z,1.80
2018-06-17T17:10:32.937Z,2.07
2018-06-17T17:13:07.732Z,2.13
2018-06-17T17:15:42.335Z,2.50
2018-06-17T17:18:16.582Z,2.37
2018-06-17T17:20:52.731Z,2.20
2018-06-17T17:23:26.927Z,2.27
2018-06-17T17:26:02.856Z,2.03
2018-06-17T17:28:38.248Z,1.90
2018-06-17T17:31:12.038Z,2.10
2018-06-17T17:33:50.107Z,1.97
2018-06-17T17:36:28.172Z,2.57
2018-06-17T17:39:07.468Z,2.50
2018-06-17T17:41:41.527Z,2.90
2018-06-17T17:44:15.916Z,2.63
2018-06-17T17:53:53.015Z,2.37
2018-06-17T17:56:27.173Z,2.90
2018-06-17T17:59:01.210Z,2.58
2018-06-17T18:01:35.970Z,2.37
2018-06-17T18:04:08.295Z,2.27
2018-06-17T18:06:42.909Z,2.50
2018-06-17T18:09:16.910Z,2.20
2018-06-17T18:11:50.891Z,2.30
2018-06-17T18:14:24.429Z,2.27
2018-06-17T18:16:58.593Z,2.90
2018-06-17T18:19:33.738Z,2.65
2018-06-17T18:22:07.722Z,2.93
2018-06-17T18:24:41.700Z,2.70
2018-06-17T18:27:19.525Z,2.87
2018-06-17T18:29:57.391Z,3.00
2018-06-17T18:32:35.341Z,3.07
2018-06-17T18:35:13.227Z,2.97
2018-06-17T18:37:47.360Z,2.53
2018-06-17T18:40:19.742Z,2.63
2018-06-17T18:42:53.609Z,2.87
2018-06-17T18:45:28.596Z,2.80
2018-06-17T18:48:03.652Z,3.10
2018-06-17T18:50:37.559Z,3.63
2018-06-17T18:53:11.541Z,2.90
2018-06-17T18:55:48.405Z,3.23
2018-06-17T18:58:20.940Z,3.35
2018-06-17T19:00:55.098Z,3.47
2018-06-17T19:03:29.190Z,2.90
2018-06-17T19:06:03.409Z,3.50
2018-06-17T19:08:39.910Z,3.27
2018-06-17T19:11:16.179Z,4.20
2018-06-17T19:14:58.238Z,3.30
2018-06-17T19:17:36.901Z,3.53
2018-06-17T19:20:10.999Z,2.93
2018-06-17T19:22:51.190Z,2.93
2018-06-17T19:25:24.798Z,3.00
2018-06-17T19:27:59.337Z,3.20
2018-06-17T19:30:33.167Z,3.45
2018-06-17T19:33:07.070Z,2.70
2018-06-17T19:35:41.279Z,3.15
2018-06-17T19:38:13.672Z,3.70
2018-06-17T19:40:47.826Z,2.53
2018-06-17T19:43:21.657Z,2.90
2018-06-17T19:45:56.073Z,2.70
2018-06-17T19:48:28.586Z,3.27
2018-06-17T19:51:06.314Z,3.10
2018-06-17T19:53:43.992Z,3.67
2018-06-17T19:56:25.676Z,3.17
2018-06-17T19:59:03.467Z,3.40
2018-06-17T20:01:37.613Z,3.30
2018-06-17T20:04:11.596Z,3.40
2018-06-17T20:06:45.475Z,3.07
2018-06-17T20:09:19.418Z,3.67
2018-06-17T20:11:53.599Z,3.80
2018-06-17T20:14:28.578Z,3.40
2018-06-17T20:17:02.439Z,3.75
2018-06-17T20:19:36.225Z,3.40
2018-06-17T20:22:10.189Z,3.93
2018-06-17T20:24:44.311Z,3.57
2018-06-17T20:27:18.332Z,3.53
2018-06-17T20:29:52.358Z,3.60
2018-06-17T20:32:31.432Z,3.63
2018-06-17T20:36:09.495Z,3.55
2018-06-17T20:38:48.068Z,3.80
2018-06-17T20:41:25.897Z,4.30
2018-06-17T20:44:00.664Z,4.10
2018-06-17T20:46:35.226Z,4.30
2018-06-17T20:49:09.438Z,4.00
2018-06-17T20:51:43.771Z,4.05
2018-06-17T20:54:16.101Z,3.60
2018-06-17T20:56:52.009Z,3.30
2018-06-17T20:59:25.728Z,4.07
2018-06-17T21:01:58.460Z,4.17
2018-06-17T21:04:32.220Z,3.83
2018-06-17T21:07:06.145Z,4.08
2018-06-17T21:09:39.937Z,4.27
2018-06-17T21:12:14.157Z,3.20
2018-06-17T21:14:49.077Z,4.07
2018-06-17T21:17:23.292Z,3.90
2018-06-17T21:20:01.140Z,3.33
2018-06-17T21:53:02.633Z,3.30
2018-06-17T21:55:36.496Z,3.47
2018-06-17T21:58:12.253Z,4.10
2018-06-17T22:00:46.611Z,3.80
2018-06-17T22:03:20.550Z,4.03
2018-06-17T22:05:52.962Z,3.13
2018-06-17T22:08:30.756Z,3.50
2018-06-17T22:11:08.875Z,3.20
2018-06-17T22:13:46.513Z,4.17
2018-06-17T22:16:24.952Z,3.70
2018-06-17T22:18:59.157Z,3.67
2018-06-17T22:21:31.887Z,3.10
2018-06-17T22:24:18.858Z,3.80
2018-06-17T22:26:53.066Z,2.85
2018-06-17T22:29:26.916Z,2.60
2018-06-17T22:32:01.067Z,3.40
2018-06-17T22:34:33.571Z,2.90
2018-06-17T22:37:07.541Z,3.60
2018-06-17T22:39:42.113Z,3.20
2018-06-17T22:42:16.098Z,3.50
2018-06-17T22:44:50.050Z,3.07
2018-06-17T22:47:27.789Z,3.30
2018-06-17T22:50:01.426Z,2.62
2018-06-17T22:52:38.961Z,2.60
2018-06-17T22:55:14.374Z,2.58
2018-06-17T22:57:52.277Z,2.42
2018-06-17T23:00:31.688Z,2.35
2018-06-17T23:03:09.959Z,2.67
2018-06-17T23:05:47.607Z,3.33
2018-06-17T23:08:25.856Z,3.05
2018-06-17T23:11:00.437Z,2.90
2018-06-17T23:13:34.367Z,3.13
2018-06-17T23:16:08.089Z,2.37
2018-06-17T23:18:41.934Z,2.87
2018-06-17T23:21:15.786Z,2.70
2018-06-17T23:23:50.432Z,2.50
2018-06-17T23:26:24.775Z,2.87
2018-06-17T23:28:58.556Z,3.23
2018-06-17T23:31:33.637Z,2.73
2018-06-17T23:34:07.711Z,2.63
2018-06-17T23:36:41.785Z,3.50
2018-06-17T23:39:15.696Z,2.97
2018-06-17T23:41:49.579Z,2.90
2018-06-17T23:44:21.922Z,2.93
2018-06-17T23:47:00.166Z,2.50
2018-06-17T23:49:38.177Z,3.00
2018-06-17T23:52:15.813Z,2.93
2018-06-17T23:54:52.994Z,3.10
2018-06-17T23:57:26.902Z,3.30
